Time;durP1;ratioP1;P1;durP2;ratioP2;P2;SDS_P1;SDS_P2;PMS_P1;PMS_P2;Temp;Humidity;BMP_temperature;BMP_pressure;BME280_temperature;BME280_humidity;BME280_pressure;Samples;Min_cycle;Max_cycle;Signal;HPM_P1;HPM_P2
2022/11/14 00:00:31;;;;;;;40.70;8.13;;;5.60;74.20;;;;;;5085825;27;46394;-67
2022/11/14 00:03:05;;;;;;;29.87;8.70;;;5.60;73.20;;;;;;5083895;27;46469;-68
2022/11/14 00:05:31;;;;;;;26.37;8.00;;;5.60;74.20;;;;;;5080856;27;46366;-67
2022/11/14 00:07:57;;;;;;;36.50;8.33;;;5.60;74.20;;;;;;5086869;27;45951;-68
2022/11/14 00:10:22;;;;;;;26.10;7.97;;;5.50;73.00;;;;;;5081280;27;46738;-70
2022/11/14 00:12:48;;;;;;;17.80;7.53;;;5.50;73.00;;;;;;5087259;27;46718;-68
2022/11/14 00:15:14;;;;;;;37.10;7.40;;;5.50;74.10;;;;;;5085523;27;47535;-68
2022/11/14 00:17:39;;;;;;;24.87;8.00;;;5.40;74.00;;;;;;5087266;27;46964;-70
2022/11/14 00:20:07;;;;;;;45.23;9.50;;;5.40;74.00;;;;;;5084014;27;46459;-67
2022/11/14 00:22:33;;;;;;;40.97;8.83;;;5.40;72.90;;;;;;5085730;27;46372;-68
2022/11/14 00:24:58;;;;;;;20.33;8.17;;;5.30;74.00;;;;;;5085480;27;47717;-67
2022/11/14 00:27:24;;;;;;;30.70;8.10;;;5.30;73.90;;;;;;5086537;27;46509;-72
2022/11/14 00:29:50;;;;;;;12.37;7.37;;;5.30;72.90;;;;;;5088854;27;45956;-67
2022/11/14 00:32:15;;;;;;;24.60;7.50;;;5.30;72.90;;;;;;5087130;27;46962;-69
2022/11/14 00:34:41;;;;;;;18.60;7.40;;;5.30;73.90;;;;;;5085330;27;47262;-68
2022/11/14 00:37:06;;;;;;;34.53;7.57;;;5.40;74.00;;;;;;5085973;27;46789;-68
2022/11/14 00:39:32;;;;;;;15.47;7.07;;;5.40;74.00;;;;;;5083112;27;46488;-69
2022/11/14 00:41:58;;;;;;;27.57;7.67;;;5.40;72.90;;;;;;5085290;27;46345;-68
2022/11/14 00:44:23;;;;;;;41.57;7.37;;;5.30;73.90;;;;;;5084189;27;47177;-70
2022/11/14 00:46:49;;;;;;;36.93;8.33;;;5.40;74.00;;;;;;5084123;27;46651;-67
2022/11/14 00:49:14;;;;;;;12.10;7.50;;;5.40;74.00;;;;;;5086359;27;46480;-68
2022/11/14 00:51:40;;;;;;;9.60;6.37;;;5.30;72.90;;;;;;5087658;27;46489;-69
2022/11/14 00:54:05;;;;;;;11.60;6.67;;;5.30;73.90;;;;;;5089728;27;47638;-68
2022/11/14 00:56:31;;;;;;;20.50;7.43;;;5.40;74.00;;;;;;5088447;27;46409;-67
2022/11/14 00:58:57;;;;;;;12.30;6.77;;;5.30;73.90;;;;;;5090163;27;46453;-68
2022/11/14 01:01:23;;;;;;;20.57;7.70;;;;;;;;;;5090403;27;46678;-69
2022/11/14 01:03:50;;;;;;;24.30;7.40;;;5.30;72.90;;;;;;5087518;27;46538;-69
2022/11/14 01:06:15;;;;;;;39.22;7.40;;;5.40;74.10;;;;;;5091966;27;46398;-70
2022/11/14 01:08:42;;;;;;;23.43;9.83;;;5.40;74.00;;;;;;5087217;27;46590;-68
2022/11/14 01:11:11;;;;;;;25.23;7.40;;;5.40;74.00;;;;;;5090118;27;47054;-70
2022/11/14 01:13:37;;;;;;;33.30;7.90;;;5.40;72.90;;;;;;5084068;27;48830;-70
2022/11/14 01:16:03;;;;;;;21.60;7.80;;;5.40;74.00;;;;;;5082505;27;46740;-70
2022/11/14 01:18:28;;;;;;;40.47;7.37;;;5.40;74.00;;;;;;5087648;27;46472;-70
2022/11/14 01:20:54;;;;;;;35.37;7.30;;;5.40;74.00;;;;;;5090715;27;46525;-69
2022/11/14 01:23:19;;;;;;;33.57;7.80;;;5.40;72.90;;;;;;5090164;27;46461;-69
2022/11/14 01:25:45;;;;;;;28.53;7.57;;;5.50;74.10;;;;;;5085751;27;46714;-68
2022/11/14 01:28:14;;;;;;;26.53;7.50;;;5.50;74.10;;;;;;5089254;27;46503;-69
2022/11/14 01:30:40;;;;;;;24.53;7.77;;;5.50;74.10;;;;;;5089479;27;46775;-69
2022/11/14 01:33:06;;;;;;;18.10;7.50;;;5.40;72.90;;;;;;5121306;27;48216;-72
2022/11/14 01:35:34;;;;;;;19.75;8.00;;;5.40;74.10;;;;;;5088607;27;46773;-69
2022/11/14 01:37:59;;;;;;;33.77;7.50;;;5.30;73.90;;;;;;5086516;27;46518;-69
2022/11/14 01:40:26;;;;;;;16.53;7.03;;;5.30;74.00;;;;;;5088454;27;46563;-69
2022/11/14 01:43:10;;;;;;;10.47;6.77;;;5.20;73.00;;;;;;5086591;27;47640;-69
2022/11/14 01:46:03;;;;;;;16.93;7.40;;;5.20;74.20;;;;;;5088916;27;46312;-68
2022/11/14 01:48:41;;;;;;;25.27;8.27;;;5.20;74.60;;;;;;5086652;27;46505;-68
2022/11/14 01:51:23;;;;;;;15.63;8.60;;;;;;;;;;5086215;27;46311;-69
2022/11/14 01:53:52;;;;;;;13.63;8.17;;;5.20;73.80;;;;;;5089575;27;46606;-71
2022/11/14 01:56:27;;;;;;;21.97;7.97;;;5.30;74.90;;;;;;5087705;27;46705;-70
2022/11/14 01:59:06;;;;;;;10.37;7.47;;;5.20;75.00;;;;;;5085533;27;46329;-67
2022/11/14 02:01:35;;;;;;;12.20;6.40;;;5.20;74.40;;;;;;5088963;27;46338;-68
2022/11/14 02:04:04;;;;;;;13.97;7.03;;;5.20;75.30;;;;;;5086139;27;46159;-68
2022/11/14 02:06:31;;;;;;;10.63;7.20;;;5.20;75.20;;;;;;5087178;27;46359;-69
2022/11/14 02:09:01;;;;;;;11.87;6.83;;;5.30;74.80;;;;;;5089633;27;46548;-70
2022/11/14 02:11:33;;;;;;;30.07;6.63;;;5.20;73.20;;;;;;5121202;27;46444;-68
2022/11/14 02:13:59;;;;;;;13.50;7.20;;;5.30;73.90;;;;;;5118396;27;47938;-68
2022/11/14 02:16:26;;;;;;;15.68;6.10;;;5.20;74.10;;;;;;5088069;27;46452;-68
2022/11/14 02:18:52;;;;;;;14.27;7.17;;;5.10;74.50;;;;;;5085339;27;46377;-68
2022/11/14 02:21:17;;;;;;;21.53;6.70;;;5.00;74.70;;;;;;5089976;27;46504;-68
2022/11/14 02:23:43;;;;;;;10.83;6.00;;;4.90;73.60;;;;;;5085738;27;46578;-71
2022/11/14 02:26:09;;;;;;;13.97;6.23;;;5.00;74.40;;;;;;5085466;27;46607;-69
2022/11/14 02:28:34;;;;;;;12.80;6.40;;;5.00;74.30;;;;;;5082814;27;46523;-67
2022/11/14 02:31:00;;;;;;;27.07;6.17;;;5.10;73.80;;;;;;5086302;27;46572;-70
2022/11/14 02:33:26;;;;;;;14.83;7.23;;;5.00;72.60;;;;;;5087129;27;46669;-69
2022/11/14 02:35:52;;;;;;;21.17;6.33;;;4.50;73.20;;;;;;5086641;27;46515;-69
2022/11/14 02:38:18;;;;;;;36.33;6.67;;;4.90;73.60;;;;;;5087311;27;46484;-68
2022/11/14 02:40:44;;;;;;;17.73;6.00;;;4.90;73.50;;;;;;5090397;27;46636;-70
2022/11/14 02:43:09;;;;;;;11.90;6.33;;;4.90;72.50;;;;;;5087820;27;46447;-69
2022/11/14 02:45:35;;;;;;;12.87;5.33;;;4.90;73.60;;;;;;5087754;27;46394;-69
2022/11/14 02:48:01;;;;;;;24.87;7.00;;;4.90;73.60;;;;;;5086227;27;46432;-70
2022/11/14 02:50:27;;;;;;;18.70;6.30;;;4.90;73.60;;;;;;5086119;27;46626;-70
2022/11/14 02:52:52;;;;;;;10.23;5.50;;;4.90;72.50;;;;;;5085967;27;47382;-70
2022/11/14 02:55:20;;;;;;;8.67;5.57;;;4.90;73.60;;;;;;5089271;27;45892;-70
2022/11/14 02:57:45;;;;;;;7.67;5.50;;;4.90;73.60;;;;;;5088313;27;46775;-67
2022/11/14 03:00:12;;;;;;;10.50;6.00;;;4.80;73.50;;;;;;5085107;27;46576;-71
2022/11/14 03:02:37;;;;;;;6.13;4.83;;;4.80;72.40;;;;;;5085028;27;46657;-69
2022/11/14 03:05:03;;;;;;;5.97;4.23;;;4.80;73.60;;;;;;5082892;27;46830;-69
2022/11/14 03:07:29;;;;;;;4.83;3.73;;;4.80;73.50;;;;;;5085474;27;46799;-69
2022/11/14 03:09:54;;;;;;;5.50;4.10;;;4.70;73.40;;;;;;5083487;27;47110;-69
2022/11/14 03:12:20;;;;;;;5.77;3.90;;;4.60;72.30;;;;;;5082238;27;46592;-70
2022/11/14 03:14:46;;;;;;;6.20;4.17;;;4.60;73.40;;;;;;5081845;27;46578;-69
2022/11/14 03:17:11;;;;;;;6.83;4.30;;;4.60;73.80;;;;;;5084544;27;46514;-70
2022/11/14 03:19:37;;;;;;;6.27;4.10;;;4.60;74.00;;;;;;5118073;27;46425;-68
2022/11/14 03:22:03;;;;;;;6.07;4.50;;;4.60;73.20;;;;;;5081372;27;47286;-68
2022/11/14 03:24:29;;;;;;;6.20;4.50;;;4.60;74.40;;;;;;5080778;27;46457;-68
2022/11/14 03:26:55;;;;;;;7.57;5.47;;;4.60;74.20;;;;;;5083622;27;46811;-68
2022/11/14 03:29:20;;;;;;;6.93;4.97;;;4.60;74.10;;;;;;5079911;27;46808;-69
2022/11/14 03:31:46;;;;;;;6.07;4.10;;;4.70;72.40;;;;;;5081252;27;46510;-69
2022/11/14 03:34:12;;;;;;;8.00;5.70;;;4.70;73.40;;;;;;5082950;27;46518;-68
2022/11/14 03:36:38;;;;;;;6.90;5.27;;;4.80;73.50;;;;;;5083596;27;45941;-71
2022/11/14 03:39:04;;;;;;;6.93;5.37;;;4.80;73.50;;;;;;5084319;27;46510;-69
2022/11/14 03:41:30;;;;;;;7.83;5.50;;;4.90;72.60;;;;;;5081912;27;46508;-67
2022/11/14 03:43:55;;;;;;;8.83;5.87;;;4.90;73.60;;;;;;5079445;27;46494;-67
2022/11/14 03:46:21;;;;;;;7.83;5.53;;;4.90;73.60;;;;;;5084883;27;46402;-68
2022/11/14 03:48:47;;;;;;;8.00;6.27;;;4.90;73.60;;;;;;5084323;27;46309;-69
2022/11/14 03:51:12;;;;;;;7.90;5.63;;;4.90;73.50;;;;;;5086219;27;48280;-69
2022/11/14 03:53:38;;;;;;;8.83;6.33;;;5.00;72.40;;;;;;5114203;27;46828;-72
2022/11/14 03:56:04;;;;;;;9.57;5.70;;;5.00;73.50;;;;;;5088660;27;46408;-68
2022/11/14 03:58:29;;;;;;;9.10;5.73;;;5.00;73.20;;;;;;5085611;27;47350;-68
2022/11/14 04:00:55;;;;;;;8.43;6.30;;;5.00;73.30;;;;;;5086131;27;46444;-70
2022/11/14 04:03:23;;;;;;;7.57;5.57;;;5.00;72.40;;;;;;5091743;27;46524;-70
2022/11/14 04:05:48;;;;;;;7.73;5.50;;;5.00;73.70;;;;;;5088098;27;46995;-68
2022/11/14 04:08:14;;;;;;;8.60;6.50;;;5.00;73.70;;;;;;5087500;27;46722;-70
2022/11/14 04:10:40;;;;;;;8.80;6.17;;;5.10;73.50;;;;;;5084326;27;46487;-70
2022/11/14 04:13:06;;;;;;;7.87;5.40;;;5.10;72.70;;;;;;5084681;27;46425;-69
2022/11/14 04:15:32;;;;;;;8.70;6.13;;;5.10;73.80;;;;;;5085712;27;46419;-68
2022/11/14 04:17:57;;;;;;;8.57;5.73;;;5.00;73.60;;;;;;5119286;27;46473;-67
2022/11/14 04:20:23;;;;;;;7.20;5.67;;;5.00;73.70;;;;;;5086463;27;46664;-69
2022/11/14 04:22:48;;;;;;;7.10;5.63;;;4.80;72.40;;;;;;5083811;27;46528;-70
2022/11/14 04:25:14;;;;;;;9.00;6.03;;;4.70;73.40;;;;;;5081410;27;45857;-68
2022/11/14 04:27:40;;;;;;;8.00;5.43;;;4.70;73.40;;;;;;5082313;27;46360;-70
2022/11/14 04:30:06;;;;;;;7.10;5.93;;;4.60;74.20;;;;;;5086303;27;47771;-70
2022/11/14 04:32:32;;;;;;;7.85;5.53;;;4.50;74.40;;;;;;5081930;27;46519;-68
2022/11/14 04:34:58;;;;;;;14.30;7.90;;;4.40;74.70;;;;;;5086264;27;46495;-71
2022/11/14 04:37:23;;;;;;;10.53;7.30;;;4.40;74.70;;;;;;5084708;27;46483;-69
2022/11/14 04:39:49;;;;;;;8.37;5.20;;;4.30;74.70;;;;;;5085501;27;48390;-70
2022/11/14 04:42:15;;;;;;;7.90;5.37;;;4.30;73.90;;;;;;5086019;27;46439;-70
2022/11/14 04:44:40;;;;;;;7.07;5.60;;;4.30;73.80;;;;;;5085819;27;46667;-69
2022/11/14 04:47:06;;;;;;;9.87;5.87;;;4.30;75.00;;;;;;5082832;27;46406;-68
2022/11/14 04:49:32;;;;;;;13.00;7.83;;;4.20;74.30;;;;;;5083711;27;47438;-69
2022/11/14 04:51:57;;;;;;;11.80;6.67;;;4.20;75.20;;;;;;5084025;27;46388;-69
2022/11/14 04:54:23;;;;;;;15.27;10.60;;;4.10;75.30;;;;;;5082844;27;45828;-70
2022/11/14 04:56:48;;;;;;;21.30;12.10;;;4.00;75.70;;;;;;5079918;27;46360;-69
2022/11/14 04:59:14;;;;;;;8.63;6.07;;;4.00;75.80;;;;;;5084330;27;47535;-70
2022/11/14 05:01:40;;;;;;;8.80;5.70;;;4.00;74.50;;;;;;5084791;27;46778;-68
2022/11/14 05:04:05;;;;;;;6.87;4.97;;;4.00;75.30;;;;;;5085400;27;46385;-68
2022/11/14 05:06:31;;;;;;;6.60;4.70;;;4.00;75.30;;;;;;5082909;27;46513;-68
2022/11/14 05:08:57;;;;;;;6.23;4.70;;;3.90;75.50;;;;;;5086915;27;46775;-70
2022/11/14 05:11:22;;;;;;;5.90;4.67;;;3.90;75.60;;;;;;5084285;27;46414;-68
2022/11/14 05:13:48;;;;;;;7.60;4.37;;;3.90;74.40;;;;;;5087369;27;46451;-72
2022/11/14 05:16:14;;;;;;;5.67;4.40;;;4.00;75.50;;;;;;5084130;27;46497;-69
2022/11/14 05:18:39;;;;;;;5.20;3.97;;;4.20;75.40;;;;;;5084006;27;47717;-69
2022/11/14 05:21:05;;;;;;;5.13;4.50;;;4.10;74.90;;;;;;5085020;27;46385;-69
2022/11/14 05:23:31;;;;;;;7.00;4.73;;;4.00;73.80;;;;;;5085836;27;46750;-69
2022/11/14 05:26:06;;;;;;;5.87;4.57;;;4.00;75.00;;;;;;5086587;27;46473;-68
2022/11/14 05:28:32;;;;;;;4.90;4.03;;;3.90;75.00;;;;;;5078123;27;46500;-68
2022/11/14 05:31:06;;;;;;;5.77;4.37;;;3.80;75.20;;;;;;5086699;27;46445;-68
2022/11/14 05:33:32;;;;;;;7.38;4.55;;;3.80;74.40;;;;;;5082717;27;46377;-70
2022/11/14 05:36:24;;;;;;;5.60;4.00;;;3.70;75.60;;;;;;5085210;27;46753;-67
2022/11/14 05:38:49;;;;;;;5.30;4.40;;;3.70;75.80;;;;;;5082269;27;46803;-69
2022/11/14 05:41:17;;;;;;;43.20;20.23;;;3.60;75.80;;;;;;5085837;27;46445;-69
2022/11/14 05:43:43;;;;;;;19.33;5.80;;;3.60;74.90;;;;;;5088018;27;46403;-69
2022/11/14 05:46:10;;;;;;;36.67;6.50;;;3.70;75.90;;;;;;5083914;27;46386;-68
2022/11/14 05:48:36;;;;;;;34.03;6.10;;;3.80;75.60;;;;;;5089377;27;46456;-70
2022/11/14 05:51:04;;;;;;;20.95;6.50;;;3.90;75.30;;;;;;5085716;27;45937;-68
2022/11/14 05:53:32;;;;;;;103.38;8.25;;;3.90;74.20;;;;;;5089949;27;46765;-71
2022/11/14 05:56:03;;;;;;;49.57;7.27;;;3.80;75.20;;;;;;5088724;27;46133;-68
2022/11/14 05:58:30;;;;;;;37.17;8.30;;;3.80;75.50;;;;;;5086817;27;46453;-69
2022/11/14 06:01:13;;;;;;;50.42;10.07;;;3.80;75.80;;;;;;5087405;27;46402;-68
2022/11/14 06:03:41;;;;;;;28.70;8.40;;;3.90;74.70;;;;;;5089333;27;46887;-70
2022/11/14 06:06:10;;;;;;;43.53;8.17;;;3.90;74.40;;;;;;5084655;27;46600;-69
2022/11/14 06:08:36;;;;;;;25.53;8.60;;;3.90;75.40;;;;;;5084825;27;46648;-68
2022/11/14 06:11:07;;;;;;;40.10;7.90;;;4.00;75.40;;;;;;5088264;27;46670;-68
2022/11/14 06:13:33;;;;;;;23.63;9.35;;;3.90;74.50;;;;;;5085179;27;46437;-69
2022/11/14 06:16:04;;;;;;;14.17;7.60;;;4.00;75.70;;;;;;5087201;27;46565;-70
2022/11/14 06:18:31;;;;;;;18.23;10.10;;;3.90;75.60;;;;;;5084150;27;46610;-70
2022/11/14 06:21:09;;;;;;;15.50;8.57;;;3.90;75.60;;;;;;5089310;27;46522;-69
2022/11/14 06:23:35;;;;;;;11.77;7.03;;;3.70;74.70;;;;;;5087696;27;46366;-68
2022/11/14 06:26:06;;;;;;;8.67;6.23;;;3.60;75.80;;;;;;5085332;27;46482;-70
2022/11/14 06:28:32;;;;;;;14.65;9.18;;;3.50;75.80;;;;;;5086871;27;46427;-68
2022/11/14 06:30:59;;;;;;;10.48;6.97;;;3.50;75.90;;;;;;5087509;27;46589;-69
2022/11/14 06:33:26;;;;;;;10.80;6.50;;;3.40;75.10;;;;;;5085395;27;46361;-69
2022/11/14 06:35:59;;;;;;;9.83;6.90;;;3.40;76.30;;;;;;5087934;27;46483;-67
2022/11/14 06:38:25;;;;;;;11.27;6.80;;;3.30;76.30;;;;;;5085263;27;46689;-69
2022/11/14 06:40:50;;;;;;;12.37;7.20;;;3.40;76.50;;;;;;5088869;27;46703;-69
2022/11/14 06:43:16;;;;;;;14.80;10.30;;;3.40;75.40;;;;;;5085949;27;46416;-68
2022/11/14 06:45:42;;;;;;;24.40;14.90;;;3.40;76.40;;;;;;5071527;27;46762;-68
2022/11/14 06:48:07;;;;;;;12.20;7.83;;;3.40;76.20;;;;;;5085405;27;47243;-67
2022/11/14 06:50:33;;;;;;;10.40;6.50;;;3.40;76.30;;;;;;5085733;27;46458;-66
2022/11/14 06:52:59;;;;;;;11.17;7.50;;;3.40;75.10;;;;;;5088483;27;46474;-67
2022/11/14 06:55:25;;;;;;;10.50;7.30;;;3.50;76.20;;;;;;5077750;27;46550;-69
2022/11/14 06:57:54;;;;;;;9.40;5.77;;;3.60;75.90;;;;;;5079321;27;46613;-68
2022/11/14 07:00:21;;;;;;;9.95;5.85;;;3.60;75.50;;;;;;5084929;27;46600;-66
2022/11/14 07:02:47;;;;;;;8.75;6.07;;;3.80;74.20;;;;;;5082528;27;46659;-67
2022/11/14 07:05:13;;;;;;;8.23;6.23;;;3.90;75.20;;;;;;5084798;27;46408;-66
2022/11/14 07:07:39;;;;;;;8.75;6.57;;;3.90;75.00;;;;;;5081590;27;47127;-68
2022/11/14 07:10:05;;;;;;;12.00;6.70;;;3.90;75.00;;;;;;5083582;27;45897;-68
2022/11/14 07:12:31;;;;;;;9.77;7.00;;;4.00;73.90;;;;;;5085467;27;46473;-69
2022/11/14 07:14:58;;;;;;;9.43;6.43;;;4.10;75.20;;;;;;5084854;27;46733;-69
2022/11/14 07:17:24;;;;;;;10.93;5.63;;;4.20;74.80;;;;;;5077906;27;46462;-67
2022/11/14 07:19:49;;;;;;;19.30;11.82;;;4.20;74.60;;;;;;5082333;27;46372;-67
2022/11/14 07:22:15;;;;;;;14.17;8.60;;;4.60;74.10;;;;;;5080961;27;46010;-66
2022/11/14 07:24:41;;;;;;;14.03;6.77;;;4.20;74.80;;;;;;5086077;27;46471;-67
2022/11/14 07:27:09;;;;;;;33.43;16.37;;;4.20;74.80;;;;;;5078972;27;46353;-67
2022/11/14 07:29:35;;;;;;;19.55;8.95;;;4.30;75.00;;;;;;5089097;27;46462;-68
2022/11/14 07:32:01;;;;;;;17.85;11.38;;;4.30;74.00;;;;;;5093073;27;45997;-65
2022/11/14 07:34:26;;;;;;;10.63;7.07;;;4.30;74.10;;;;;;5089827;27;46318;-65
2022/11/14 07:36:53;;;;;;;22.57;12.23;;;4.30;75.40;;;;;;5080553;27;46414;-67
2022/11/14 07:39:19;;;;;;;12.73;5.53;;;4.40;75.30;;;;;;5085871;27;46501;-68
2022/11/14 07:41:45;;;;;;;8.50;6.23;;;4.60;74.10;;;;;;5084753;27;46428;-67
2022/11/14 07:44:10;;;;;;;10.40;5.90;;;4.60;75.00;;;;;;5092232;27;46481;-65
2022/11/14 07:46:36;;;;;;;7.10;5.03;;;4.60;75.00;;;;;;5079778;27;48190;-68
2022/11/14 07:49:02;;;;;;;7.23;5.57;;;4.70;75.10;;;;;;5084508;27;46417;-66
2022/11/14 07:51:27;;;;;;;8.00;6.00;;;4.70;74.10;;;;;;5085265;27;45971;-67
2022/11/14 07:53:53;;;;;;;7.63;5.83;;;4.70;75.10;;;;;;5086589;27;46473;-66
2022/11/14 07:56:19;;;;;;;9.57;6.93;;;4.80;75.10;;;;;;5079765;27;47195;-67
2022/11/14 07:58:44;;;;;;;9.03;6.70;;;4.90;74.90;;;;;;5084631;27;46464;-65
2022/11/14 08:01:11;;;;;;;10.97;7.60;;;5.00;74.90;;;;;;5084752;27;46412;-67
2022/11/14 08:03:37;;;;;;;8.87;6.57;;;5.10;73.60;;;;;;5083016;27;46372;-66
2022/11/14 08:06:11;;;;;;;8.87;6.67;;;5.20;74.50;;;;;;5081308;27;46121;-69
2022/11/14 08:08:37;;;;;;;18.33;8.10;;;5.40;74.00;;;;;;5086725;27;46465;-65
2022/11/14 08:11:03;;;;;;;16.43;8.17;;;5.40;74.40;;;;;;5085591;27;46391;-65
2022/11/14 08:13:29;;;;;;;9.80;7.20;;;5.40;73.90;;;;;;5082881;27;46521;-67
2022/11/14 08:15:55;;;;;;;46.50;10.83;;;5.60;74.20;;;;;;5077891;27;47357;-66
2022/11/14 08:18:21;;;;;;;16.07;6.80;;;5.70;74.30;;;;;;5085893;27;45903;-67
2022/11/14 08:20:46;;;;;;;46.23;7.87;;;5.70;74.30;;;;;;5083279;27;46204;-66
2022/11/14 08:23:12;;;;;;;12.33;5.40;;;5.60;73.30;;;;;;5087396;27;46495;-65
2022/11/14 08:25:39;;;;;;;8.53;5.97;;;5.70;74.50;;;;;;5081877;27;46524;-63
2022/11/14 08:28:04;;;;;;;9.80;7.10;;;5.70;74.40;;;;;;5081740;27;46376;-65
2022/11/14 08:30:30;;;;;;;11.33;7.70;;;5.70;74.30;;;;;;5088721;27;46363;-65
2022/11/14 08:32:56;;;;;;;10.70;7.90;;;5.90;73.40;;;;;;5083238;27;46688;-65
2022/11/14 08:35:22;;;;;;;102.07;9.27;;;6.00;74.70;;;;;;5087590;27;46823;-66
2022/11/14 08:37:48;;;;;;;29.97;7.40;;;6.20;74.70;;;;;;5079278;27;46407;-67
2022/11/14 08:40:13;;;;;;;10.13;7.00;;;6.30;74.00;;;;;;5083951;27;46541;-64
2022/11/14 08:42:39;;;;;;;10.00;6.80;;;6.50;72.50;;;;;;5086012;27;46336;-65
2022/11/14 08:45:05;;;;;;;11.10;8.30;;;6.40;73.40;;;;;;5081184;27;47461;-65
2022/11/14 08:47:31;;;;;;;8.30;5.87;;;6.40;74.10;;;;;;5079425;27;46474;-65
2022/11/14 08:49:57;;;;;;;6.70;5.57;;;6.50;73.40;;;;;;5082158;27;46524;-65
2022/11/14 08:52:22;;;;;;;24.37;7.50;;;6.60;73.40;;;;;;5085133;27;46441;-64
2022/11/14 08:54:48;;;;;;;13.87;8.03;;;6.70;74.60;;;;;;5084087;27;46467;-64
2022/11/14 08:57:14;;;;;;;10.20;6.93;;;6.70;74.70;;;;;;5078802;27;46423;-64
2022/11/14 08:59:43;;;;;;;11.00;7.00;;;6.80;74.60;;;;;;5116739;27;46490;-67
2022/11/14 09:02:12;;;;;;;6.87;5.07;;;6.90;74.40;;;;;;5081671;27;46039;-66
2022/11/14 09:04:38;;;;;;;6.13;4.70;;;6.90;74.20;;;;;;5081947;27;47155;-67
2022/11/14 09:07:04;;;;;;;6.67;5.33;;;7.00;74.50;;;;;;5078402;27;46999;-67
2022/11/14 09:09:29;;;;;;;9.63;6.07;;;7.00;74.60;;;;;;5083264;27;46440;-64
2022/11/14 09:11:55;;;;;;;11.87;5.60;;;7.10;75.10;;;;;;5083066;27;46561;-66
2022/11/14 09:14:21;;;;;;;9.83;6.57;;;7.40;74.30;;;;;;5087608;27;46446;-64
2022/11/14 09:16:46;;;;;;;15.00;6.33;;;7.60;73.50;;;;;;5080388;27;46509;-65
2022/11/14 09:19:12;;;;;;;18.70;6.37;;;7.80;72.30;;;;;;5085736;27;45780;-66
2022/11/14 09:21:38;;;;;;;14.83;5.70;;;8.20;71.70;;;;;;5089618;27;46260;-65
2022/11/14 09:24:04;;;;;;;6.37;4.90;;;8.20;72.60;;;;;;5087572;27;46410;-66
2022/11/14 09:26:29;;;;;;;15.03;5.90;;;8.10;72.30;;;;;;5081093;27;46420;-65
2022/11/14 09:28:55;;;;;;;13.90;5.83;;;8.00;72.40;;;;;;5088355;27;46366;-65
2022/11/14 09:31:21;;;;;;;9.73;4.80;;;8.00;73.00;;;;;;5087381;27;46012;-63
2022/11/14 09:33:46;;;;;;;11.33;5.60;;;8.00;71.80;;;;;;5085227;27;47092;-64
2022/11/14 09:36:17;;;;;;;17.57;4.67;;;7.90;72.60;;;;;;5081277;27;46849;-65
2022/11/14 09:38:43;;;;;;;12.33;4.73;;;7.80;72.70;;;;;;5091571;27;45918;-64
2022/11/14 09:41:22;;;;;;;14.13;4.60;;;7.70;73.20;;;;;;5086971;27;46031;-65
2022/11/14 09:44:09;;;;;;;11.93;4.50;;;7.80;72.10;;;;;;5087282;27;47679;-66
2022/11/14 09:46:43;;;;;;;23.00;4.83;;;7.80;72.90;;;;;;5078920;27;46326;-64
2022/11/14 09:49:45;;;;;;;27.43;4.93;;;7.60;72.50;;;;;;5090831;27;46353;-63
2022/11/14 09:52:15;;;;;;;6.30;4.10;;;8.10;70.80;;;;;;5023836;28;46362;-67
2022/11/14 09:55:10;;;;;;;31.13;5.73;;;8.20;71.60;;;;;;5075867;27;46792;-64
2022/11/14 09:57:36;;;;;;;5.87;4.97;;;8.00;71.10;;;;;;5049703;27;46543;-65
2022/11/14 10:00:11;;;;;;;4.50;3.90;;;8.20;71.40;;;;;;5082971;27;46454;-66
2022/11/14 10:02:56;;;;;;;7.30;4.40;;;8.10;71.30;;;;;;5084422;27;46374;-66
2022/11/14 10:05:44;;;;;;;5.60;4.60;;;8.10;72.30;;;;;;5082987;27;48594;-67
2022/11/14 10:08:18;;;;;;;4.90;4.00;;;8.10;72.20;;;;;;5082600;27;46408;-67
2022/11/14 10:10:58;;;;;;;7.03;3.80;;;8.30;72.00;;;;;;5087430;27;46526;-66
2022/11/14 10:13:56;;;;;;;5.90;4.33;;;8.50;70.70;;;;;;5088007;27;46553;-67
2022/11/14 10:16:49;;;;;;;7.63;4.10;;;8.60;71.50;;;;;;5080873;27;46719;-66
2022/11/14 10:19:25;;;;;;;5.00;3.70;;;8.90;71.40;;;;;;5094660;27;46514;-66
2022/11/14 10:22:11;;;;;;;5.00;4.00;;;8.90;70.80;;;;;;5088229;27;46337;-67
2022/11/14 10:24:43;;;;;;;6.00;4.20;;;8.90;71.80;;;;;;5084657;27;46853;-65
2022/11/14 10:27:44;;;;;;;8.90;4.40;;;9.00;71.80;;;;;;5081749;27;47173;-66
2022/11/14 10:30:14;;;;;;;5.40;4.60;;;9.00;71.90;;;;;;5074847;27;46379;-66
2022/11/14 10:33:01;;;;;;;8.80;4.77;;;9.10;72.10;;;;;;5083430;27;46459;-67
2022/11/14 10:35:35;;;;;;;8.03;5.10;;;9.00;72.30;;;;;;5091517;27;46607;-66
2022/11/14 10:38:18;;;;;;;8.13;4.70;;;9.20;73.10;;;;;;5084061;27;48120;-66
2022/11/14 10:40:51;;;;;;;5.87;4.77;;;9.30;71.40;;;;;;5085276;27;46560;-66
2022/11/14 10:43:38;;;;;;;7.07;4.70;;;9.40;71.60;;;;;;5085296;27;46455;-67
2022/11/14 10:46:11;;;;;;;6.23;4.73;;;9.30;71.90;;;;;;5081080;27;46585;-65
2022/11/14 10:48:40;;;;;;;5.60;4.30;;;9.40;72.00;;;;;;5083223;27;47736;-66
2022/11/14 10:51:37;;;;;;;8.17;4.90;;;9.40;72.10;;;;;;5086846;27;46532;-66
2022/11/14 10:54:09;;;;;;;8.10;5.10;;;9.40;70.80;;;;;;5084133;27;47096;-68
2022/11/14 10:56:45;;;;;;;6.40;4.93;;;9.40;71.70;;;;;;5080450;27;46905;-64
2022/11/14 10:59:11;;;;;;;5.30;4.30;;;9.30;71.80;;;;;;5080831;27;47262;-67
2022/11/14 11:01:42;;;;;;;5.07;4.13;;;9.50;71.30;;;;;;5084075;27;46391;-69
2022/11/14 11:04:24;;;;;;;5.47;4.60;;;9.40;72.20;;;;;;5084588;27;46384;-64
2022/11/14 11:06:52;;;;;;;5.90;4.50;;;9.50;72.20;;;;;;5081891;27;46494;-64
2022/11/14 11:12:06;;;;;;;6.10;3.97;;;9.50;71.10;;;;;;5087528;27;46456;-66
2022/11/14 11:14:33;;;;;;;6.37;4.33;;;9.60;72.30;;;;;;5086537;27;46549;-67
2022/11/14 11:17:11;;;;;;;6.57;5.13;;;9.60;72.30;;;;;;5084121;27;46683;-67
2022/11/14 11:19:38;;;;;;;6.53;5.10;;;9.80;72.20;;;;;;5087312;27;46380;-66
2022/11/14 11:22:21;;;;;;;14.43;4.70;;;10.00;69.90;;;;;;5085605;27;47377;-67
2022/11/14 11:24:47;;;;;;;5.90;4.70;;;10.00;70.80;;;;;;5084600;27;46344;-65
2022/11/14 11:27:22;;;;;;;6.40;5.00;;;10.10;70.60;;;;;;5079093;27;46728;-68
2022/11/14 11:30:18;;;;;;;7.73;4.77;;;10.30;70.40;;;;;;5085964;27;47341;-66
2022/11/14 11:32:44;;;;;;;6.30;4.60;;;10.40;68.80;;;;;;5086172;27;46258;-66
2022/11/14 11:35:14;;;;;;;8.60;4.90;;;10.50;69.90;;;;;;5082622;27;46473;-67
2022/11/14 11:37:53;;;;;;;6.00;4.50;;;10.60;69.60;;;;;;5083841;27;46655;-66
2022/11/14 11:40:22;;;;;;;6.20;4.40;;;10.80;69.20;;;;;;5087510;27;46710;-66
2022/11/14 11:43:20;;;;;;;7.10;4.33;;;10.90;67.80;;;;;;5082987;27;46680;-67
2022/11/14 11:45:47;;;;;;;9.30;5.20;;;11.00;68.70;;;;;;5086296;27;46378;-63
2022/11/14 11:48:22;;;;;;;5.57;4.27;;;11.10;68.70;;;;;;5082496;27;46487;-67
2022/11/14 11:50:48;;;;;;;6.77;4.30;;;11.20;68.40;;;;;;5087228;27;46636;-63
2022/11/14 11:53:25;;;;;;;11.87;6.50;;;11.40;66.40;;;;;;5082505;27;46510;-64
2022/11/14 11:55:55;;;;;;;9.37;5.63;;;11.50;67.60;;;;;;5083205;27;46658;-67
2022/11/14 11:58:30;;;;;;;9.90;5.30;;;11.60;67.00;;;;;;5080869;27;46708;-67
2022/11/14 12:00:55;;;;;;;10.80;4.80;;;11.70;66.10;;;;;;5084741;27;46846;-67
2022/11/14 12:03:24;;;;;;;7.93;3.77;;;11.70;65.00;;;;;;5086448;27;46526;-66
2022/11/14 12:05:58;;;;;;;5.80;4.67;;;11.80;66.10;;;;;;5078304;27;46442;-64
2022/11/14 12:09:06;;;;;;;7.10;4.97;;;11.90;66.20;;;;;;5080762;27;46487;-64
2022/11/14 12:11:35;;;;;;;6.33;4.40;;;12.30;63.70;;;;;;5077306;27;46399;-67
2022/11/14 12:14:22;;;;;;;5.57;4.43;;;12.30;64.70;;;;;;5077452;27;46345;-66
2022/11/14 12:17:16;;;;;;;6.67;4.83;;;12.50;63.50;;;;;;5107840;27;46967;-68
2022/11/14 12:19:41;;;;;;;9.40;4.90;;;12.70;62.70;;;;;;5080807;27;46526;-64
2022/11/14 12:22:16;;;;;;;13.47;5.43;;;12.90;61.00;;;;;;5074343;27;46701;-65
2022/11/14 12:24:53;;;;;;;18.60;7.80;;;12.90;63.10;;;;;;5078647;27;46515;-69
2022/11/14 12:27:42;;;;;;;9.23;5.27;;;13.10;61.40;;;;;;5078150;27;46378;-66
2022/11/14 12:30:13;;;;;;;10.53;5.27;;;13.10;61.10;;;;;;5081606;27;46443;-67
2022/11/14 12:32:38;;;;;;;8.10;4.67;;;13.20;60.00;;;;;;5081258;27;46656;-66
2022/11/14 12:35:09;;;;;;;19.37;9.60;;;13.20;61.00;;;;;;5080422;27;46530;-63
2022/11/14 12:37:42;;;;;;;19.87;11.37;;;13.30;60.40;;;;;;5077142;27;46630;-64
2022/11/14 12:40:21;;;;;;;12.83;6.30;;;13.30;60.30;;;;;;5082652;27;46451;-64
2022/11/14 12:42:48;;;;;;;6.13;4.53;;;13.30;59.20;;;;;;5080783;27;46421;-66
2022/11/14 12:45:35;;;;;;;6.77;4.90;;;13.30;60.50;;;;;;5084617;27;46410;-65
2022/11/14 12:48:21;;;;;;;8.27;5.87;;;13.00;60.50;;;;;;5076825;27;47079;-64
2022/11/14 12:50:47;;;;;;;9.93;6.23;;;12.70;60.90;;;;;;5082115;27;46448;-65
2022/11/14 12:53:36;;;;;;;7.27;5.33;;;12.60;60.50;;;;;;5080649;27;46607;-67
2022/11/14 12:56:23;;;;;;;10.07;5.60;;;12.60;61.70;;;;;;5086170;27;46479;-65
2022/11/14 12:59:03;;;;;;;7.87;6.23;;;12.70;61.70;;;;;;5083072;27;46689;-65
2022/11/14 13:01:29;;;;;;;8.90;6.30;;;12.60;61.30;;;;;;5088099;27;46342;-64
2022/11/14 13:04:21;;;;;;;7.33;5.50;;;12.60;60.50;;;;;;5087196;27;46488;-66